sensor_id;sensor_type;location;lat;lon;timestamp;P1;durP1;ratioP1;P2;durP2;ratioP2
58756;SDS011;44527;47.460;19.016;2023-10-31T00:02:20;13.25;;;6.75;;
58756;SDS011;44527;47.460;19.016;2023-10-31T00:05:23;13.60;;;6.50;;
58756;SDS011;44527;47.460;19.016;2023-10-31T00:08:26;17.52;;;6.75;;
58756;SDS011;44527;47.460;19.016;2023-10-31T00:11:29;15.73;;;6.78;;
58756;SDS011;44527;47.460;19.016;2023-10-31T00:14:31;12.55;;;6.18;;
58756;SDS011;44527;47.460;19.016;2023-10-31T00:17:33;13.77;;;6.80;;
58756;SDS011;44527;47.460;19.016;2023-10-31T00:20:36;18.40;;;7.00;;
58756;SDS011;44527;47.460;19.016;2023-10-31T00:23:45;13.43;;;7.30;;
58756;SDS011;44527;47.460;19.016;2023-10-31T00:26:48;15.60;;;7.18;;
58756;SDS011;44527;47.460;19.016;2023-10-31T00:29:52;14.43;;;7.30;;
58756;SDS011;44527;47.460;19.016;2023-10-31T00:32:55;19.40;;;7.47;;
58756;SDS011;44527;47.460;19.016;2023-10-31T00:35:58;16.35;;;7.10;;
58756;SDS011;44527;47.460;19.016;2023-10-31T00:39:00;22.02;;;7.80;;
58756;SDS011;44527;47.460;19.016;2023-10-31T00:42:04;18.27;;;7.18;;
58756;SDS011;44527;47.460;19.016;2023-10-31T00:45:06;13.95;;;7.37;;
58756;SDS011;44527;47.460;19.016;2023-10-31T00:48:10;14.63;;;7.28;;
58756;SDS011;44527;47.460;19.016;2023-10-31T00:51:12;14.18;;;7.15;;
58756;SDS011;44527;47.460;19.016;2023-10-31T00:54:15;16.98;;;7.37;;
58756;SDS011;44527;47.460;19.016;2023-10-31T00:57:17;15.60;;;7.28;;
58756;SDS011;44527;47.460;19.016;2023-10-31T01:00:19;16.50;;;7.60;;
58756;SDS011;44527;47.460;19.016;2023-10-31T01:03:22;18.73;;;7.90;;
58756;SDS011;44527;47.460;19.016;2023-10-31T01:06:25;14.50;;;7.60;;
58756;SDS011;44527;47.460;19.016;2023-10-31T01:09:27;18.75;;;8.18;;
58756;SDS011;44527;47.460;19.016;2023-10-31T01:12:30;16.05;;;8.65;;
58756;SDS011;44527;47.460;19.016;2023-10-31T01:15:34;17.87;;;7.95;;
58756;SDS011;44527;47.460;19.016;2023-10-31T01:18:36;18.23;;;7.57;;
58756;SDS011;44527;47.460;19.016;2023-10-31T01:21:39;17.00;;;7.70;;
58756;SDS011;44527;47.460;19.016;2023-10-31T01:24:42;15.02;;;8.07;;
58756;SDS011;44527;47.460;19.016;2023-10-31T01:27:44;15.45;;;7.75;;
58756;SDS011;44527;47.460;19.016;2023-10-31T01:30:47;16.10;;;8.25;;
58756;SDS011;44527;47.460;19.016;2023-10-31T01:33:49;21.90;;;8.57;;
58756;SDS011;44527;47.460;19.016;2023-10-31T01:36:51;17.23;;;7.85;;
58756;SDS011;44527;47.460;19.016;2023-10-31T01:39:54;18.35;;;8.32;;
58756;SDS011;44527;47.460;19.016;2023-10-31T01:42:57;13.48;;;7.12;;
58756;SDS011;44527;47.460;19.016;2023-10-31T01:45:59;19.70;;;7.55;;
58756;SDS011;44527;47.460;19.016;2023-10-31T01:49:02;24.45;;;8.32;;
58756;SDS011;44527;47.460;19.016;2023-10-31T01:52:07;18.00;;;8.50;;
58756;SDS011;44527;47.460;19.016;2023-10-31T01:55:10;20.20;;;8.35;;
58756;SDS011;44527;47.460;19.016;2023-10-31T01:58:12;17.87;;;8.57;;
58756;SDS011;44527;47.460;19.016;2023-10-31T02:01:16;26.10;;;8.95;;
58756;SDS011;44527;47.460;19.016;2023-10-31T02:04:19;19.20;;;8.35;;
58756;SDS011;44527;47.460;19.016;2023-10-31T02:07:21;20.90;;;8.38;;
58756;SDS011;44527;47.460;19.016;2023-10-31T02:10:24;17.00;;;7.95;;
58756;SDS011;44527;47.460;19.016;2023-10-31T02:13:26;15.77;;;8.70;;
58756;SDS011;44527;47.460;19.016;2023-10-31T02:16:29;17.50;;;8.48;;
58756;SDS011;44527;47.460;19.016;2023-10-31T02:19:31;15.40;;;8.18;;
58756;SDS011;44527;47.460;19.016;2023-10-31T02:22:35;16.02;;;8.98;;
58756;SDS011;44527;47.460;19.016;2023-10-31T02:25:37;17.73;;;8.63;;
58756;SDS011;44527;47.460;19.016;2023-10-31T02:28:40;18.20;;;8.40;;
58756;SDS011;44527;47.460;19.016;2023-10-31T02:31:45;21.27;;;8.88;;
58756;SDS011;44527;47.460;19.016;2023-10-31T02:34:47;20.05;;;8.85;;
58756;SDS011;44527;47.460;19.016;2023-10-31T02:37:50;17.58;;;8.73;;
58756;SDS011;44527;47.460;19.016;2023-10-31T02:40:52;16.45;;;8.15;;
58756;SDS011;44527;47.460;19.016;2023-10-31T02:43:55;18.08;;;8.02;;
58756;SDS011;44527;47.460;19.016;2023-10-31T02:46:59;18.77;;;8.98;;
58756;SDS011;44527;47.460;19.016;2023-10-31T02:50:01;17.70;;;8.30;;
58756;SDS011;44527;47.460;19.016;2023-10-31T02:53:04;13.73;;;8.05;;
58756;SDS011;44527;47.460;19.016;2023-10-31T02:56:07;18.70;;;8.23;;
58756;SDS011;44527;47.460;19.016;2023-10-31T02:59:10;20.12;;;9.18;;
58756;SDS011;44527;47.460;19.016;2023-10-31T03:02:12;17.55;;;8.02;;
58756;SDS011;44527;47.460;19.016;2023-10-31T03:05:15;19.65;;;8.60;;
58756;SDS011;44527;47.460;19.016;2023-10-31T03:08:18;15.32;;;8.43;;
58756;SDS011;44527;47.460;19.016;2023-10-31T03:11:26;25.00;;;8.55;;
58756;SDS011;44527;47.460;19.016;2023-10-31T03:14:31;18.70;;;9.07;;
58756;SDS011;44527;47.460;19.016;2023-10-31T03:17:33;16.52;;;7.97;;
58756;SDS011;44527;47.460;19.016;2023-10-31T03:20:35;22.87;;;8.93;;
58756;SDS011;44527;47.460;19.016;2023-10-31T03:23:39;20.80;;;8.77;;
58756;SDS011;44527;47.460;19.016;2023-10-31T03:26:41;13.38;;;7.95;;
58756;SDS011;44527;47.460;19.016;2023-10-31T03:29:44;16.77;;;8.25;;
58756;SDS011;44527;47.460;19.016;2023-10-31T03:32:46;15.90;;;8.68;;
58756;SDS011;44527;47.460;19.016;2023-10-31T03:35:49;15.75;;;9.00;;
58756;SDS011;44527;47.460;19.016;2023-10-31T03:38:51;19.10;;;8.40;;
58756;SDS011;44527;47.460;19.016;2023-10-31T03:41:54;18.10;;;8.02;;
58756;SDS011;44527;47.460;19.016;2023-10-31T03:44:59;14.73;;;8.50;;
58756;SDS011;44527;47.460;19.016;2023-10-31T03:48:01;17.10;;;7.95;;
58756;SDS011;44527;47.460;19.016;2023-10-31T03:51:05;20.27;;;9.55;;
58756;SDS011;44527;47.460;19.016;2023-10-31T03:54:07;15.27;;;8.60;;
58756;SDS011;44527;47.460;19.016;2023-10-31T03:57:11;23.30;;;9.43;;
58756;SDS011;44527;47.460;19.016;2023-10-31T04:00:13;20.45;;;8.75;;
58756;SDS011;44527;47.460;19.016;2023-10-31T04:03:17;15.55;;;8.85;;
58756;SDS011;44527;47.460;19.016;2023-10-31T04:06:20;18.33;;;9.00;;
58756;SDS011;44527;47.460;19.016;2023-10-31T04:09:22;24.00;;;9.85;;
58756;SDS011;44527;47.460;19.016;2023-10-31T04:12:24;18.58;;;8.70;;
58756;SDS011;44527;47.460;19.016;2023-10-31T04:15:27;19.10;;;9.63;;
58756;SDS011;44527;47.460;19.016;2023-10-31T04:18:29;20.27;;;8.95;;
58756;SDS011;44527;47.460;19.016;2023-10-31T04:21:32;19.60;;;9.30;;
58756;SDS011;44527;47.460;19.016;2023-10-31T04:24:34;17.83;;;9.20;;
58756;SDS011;44527;47.460;19.016;2023-10-31T04:27:37;20.77;;;9.07;;
58756;SDS011;44527;47.460;19.016;2023-10-31T04:30:39;14.05;;;8.27;;
58756;SDS011;44527;47.460;19.016;2023-10-31T04:33:42;15.98;;;9.45;;
58756;SDS011;44527;47.460;19.016;2023-10-31T04:36:44;18.20;;;9.25;;
58756;SDS011;44527;47.460;19.016;2023-10-31T04:39:46;20.92;;;9.27;;
58756;SDS011;44527;47.460;19.016;2023-10-31T04:42:49;16.30;;;9.23;;
58756;SDS011;44527;47.460;19.016;2023-10-31T04:45:51;19.00;;;8.85;;
58756;SDS011;44527;47.460;19.016;2023-10-31T04:48:54;19.62;;;9.68;;
58756;SDS011;44527;47.460;19.016;2023-10-31T04:51:56;19.37;;;8.75;;
58756;SDS011;44527;47.460;19.016;2023-10-31T04:55:00;20.62;;;8.65;;
58756;SDS011;44527;47.460;19.016;2023-10-31T04:58:03;16.58;;;8.10;;
58756;SDS011;44527;47.460;19.016;2023-10-31T05:01:09;15.50;;;7.87;;
58756;SDS011;44527;47.460;19.016;2023-10-31T05:04:13;15.10;;;7.80;;
58756;SDS011;44527;47.460;19.016;2023-10-31T05:07:16;17.20;;;8.73;;
58756;SDS011;44527;47.460;19.016;2023-10-31T05:10:22;13.82;;;8.00;;
58756;SDS011;44527;47.460;19.016;2023-10-31T05:13:25;17.25;;;8.93;;
58756;SDS011;44527;47.460;19.016;2023-10-31T05:16:27;21.98;;;8.55;;
58756;SDS011;44527;47.460;19.016;2023-10-31T05:19:30;15.20;;;8.25;;
58756;SDS011;44527;47.460;19.016;2023-10-31T05:22:32;17.62;;;8.57;;
58756;SDS011;44527;47.460;19.016;2023-10-31T05:25:34;16.33;;;8.40;;
58756;SDS011;44527;47.460;19.016;2023-10-31T05:28:37;19.33;;;9.02;;
58756;SDS011;44527;47.460;19.016;2023-10-31T05:31:39;13.65;;;7.62;;
58756;SDS011;44527;47.460;19.016;2023-10-31T05:34:44;13.13;;;7.32;;
58756;SDS011;44527;47.460;19.016;2023-10-31T05:37:46;22.25;;;7.43;;
58756;SDS011;44527;47.460;19.016;2023-10-31T05:40:49;16.20;;;7.55;;
58756;SDS011;44527;47.460;19.016;2023-10-31T05:43:51;17.95;;;8.65;;
58756;SDS011;44527;47.460;19.016;2023-10-31T05:46:54;17.02;;;8.60;;
58756;SDS011;44527;47.460;19.016;2023-10-31T05:49:56;15.05;;;8.07;;
58756;SDS011;44527;47.460;19.016;2023-10-31T05:52:59;21.67;;;7.47;;
58756;SDS011;44527;47.460;19.016;2023-10-31T05:56:02;18.00;;;7.82;;
58756;SDS011;44527;47.460;19.016;2023-10-31T05:59:05;17.08;;;7.68;;
58756;SDS011;44527;47.460;19.016;2023-10-31T06:02:07;14.90;;;7.37;;
58756;SDS011;44527;47.460;19.016;2023-10-31T06:05:10;15.32;;;7.28;;
58756;SDS011;44527;47.460;19.016;2023-10-31T06:08:12;17.10;;;8.30;;
58756;SDS011;44527;47.460;19.016;2023-10-31T06:11:15;16.33;;;7.57;;
58756;SDS011;44527;47.460;19.016;2023-10-31T06:14:18;17.15;;;7.18;;
58756;SDS011;44527;47.460;19.016;2023-10-31T06:17:20;20.23;;;7.15;;
58756;SDS011;44527;47.460;19.016;2023-10-31T06:20:23;16.65;;;7.25;;
58756;SDS011;44527;47.460;19.016;2023-10-31T06:23:26;14.70;;;6.80;;
58756;SDS011;44527;47.460;19.016;2023-10-31T06:26:31;13.98;;;7.25;;
58756;SDS011;44527;47.460;19.016;2023-10-31T06:29:33;19.15;;;7.12;;
58756;SDS011;44527;47.460;19.016;2023-10-31T06:32:56;16.80;;;6.53;;
58756;SDS011;44527;47.460;19.016;2023-10-31T06:35:58;14.68;;;6.32;;
58756;SDS011;44527;47.460;19.016;2023-10-31T06:39:01;13.70;;;6.57;;
58756;SDS011;44527;47.460;19.016;2023-10-31T06:42:05;11.32;;;5.80;;
58756;SDS011;44527;47.460;19.016;2023-10-31T06:45:07;15.43;;;6.25;;
58756;SDS011;44527;47.460;19.016;2023-10-31T06:48:11;12.70;;;5.80;;
58756;SDS011;44527;47.460;19.016;2023-10-31T06:51:13;14.70;;;5.62;;
58756;SDS011;44527;47.460;19.016;2023-10-31T06:54:16;8.95;;;5.25;;
58756;SDS011;44527;47.460;19.016;2023-10-31T06:57:18;12.50;;;5.90;;
58756;SDS011;44527;47.460;19.016;2023-10-31T07:00:23;12.95;;;5.65;;
58756;SDS011;44527;47.460;19.016;2023-10-31T07:03:26;13.57;;;5.50;;
58756;SDS011;44527;47.460;19.016;2023-10-31T07:06:28;12.68;;;5.43;;
58756;SDS011;44527;47.460;19.016;2023-10-31T07:09:31;15.63;;;6.22;;
58756;SDS011;44527;47.460;19.016;2023-10-31T07:12:33;9.90;;;5.07;;
58756;SDS011;44527;47.460;19.016;2023-10-31T07:15:36;13.52;;;5.22;;
58756;SDS011;44527;47.460;19.016;2023-10-31T07:18:41;12.73;;;5.62;;
58756;SDS011;44527;47.460;19.016;2023-10-31T07:21:43;9.07;;;4.80;;
58756;SDS011;44527;47.460;19.016;2023-10-31T07:24:46;11.38;;;4.78;;
58756;SDS011;44527;47.460;19.016;2023-10-31T07:27:48;7.80;;;4.65;;
58756;SDS011;44527;47.460;19.016;2023-10-31T07:30:51;8.95;;;4.62;;
58756;SDS011;44527;47.460;19.016;2023-10-31T07:33:53;10.93;;;4.53;;
58756;SDS011;44527;47.460;19.016;2023-10-31T07:36:56;9.80;;;4.80;;
58756;SDS011;44527;47.460;19.016;2023-10-31T07:39:58;12.40;;;4.72;;
58756;SDS011;44527;47.460;19.016;2023-10-31T07:43:01;14.57;;;4.97;;
58756;SDS011;44527;47.460;19.016;2023-10-31T07:46:03;11.82;;;5.57;;
58756;SDS011;44527;47.460;19.016;2023-10-31T07:49:06;8.70;;;4.18;;
58756;SDS011;44527;47.460;19.016;2023-10-31T07:52:09;8.60;;;4.10;;
58756;SDS011;44527;47.460;19.016;2023-10-31T07:55:12;10.48;;;4.30;;
58756;SDS011;44527;47.460;19.016;2023-10-31T07:58:16;5.82;;;3.35;;
58756;SDS011;44527;47.460;19.016;2023-10-31T08:01:19;16.67;;;4.47;;
58756;SDS011;44527;47.460;19.016;2023-10-31T08:04:23;9.93;;;2.95;;
58756;SDS011;44527;47.460;19.016;2023-10-31T08:07:26;10.40;;;3.10;;
58756;SDS011;44527;47.460;19.016;2023-10-31T08:10:33;10.88;;;3.30;;
58756;SDS011;44527;47.460;19.016;2023-10-31T08:13:36;7.85;;;3.12;;
58756;SDS011;44527;47.460;19.016;2023-10-31T08:16:42;12.35;;;3.33;;
58756;SDS011;44527;47.460;19.016;2023-10-31T08:19:44;6.95;;;3.10;;
58756;SDS011;44527;47.460;19.016;2023-10-31T08:22:47;6.12;;;2.83;;
58756;SDS011;44527;47.460;19.016;2023-10-31T08:25:49;9.70;;;3.72;;
58756;SDS011;44527;47.460;19.016;2023-10-31T08:28:52;7.90;;;3.10;;
58756;SDS011;44527;47.460;19.016;2023-10-31T08:31:55;8.32;;;3.12;;
58756;SDS011;44527;47.460;19.016;2023-10-31T08:34:58;7.70;;;3.17;;
58756;SDS011;44527;47.460;19.016;2023-10-31T08:38:00;9.80;;;2.85;;
58756;SDS011;44527;47.460;19.016;2023-10-31T08:41:03;6.80;;;2.58;;
58756;SDS011;44527;47.460;19.016;2023-10-31T08:44:05;5.45;;;2.70;;
58756;SDS011;44527;47.460;19.016;2023-10-31T08:47:09;8.93;;;2.53;;
58756;SDS011;44527;47.460;19.016;2023-10-31T08:50:14;5.20;;;2.65;;
58756;SDS011;44527;47.460;19.016;2023-10-31T08:53:17;10.07;;;2.22;;
58756;SDS011;44527;47.460;19.016;2023-10-31T08:56:21;3.80;;;2.10;;
58756;SDS011;44527;47.460;19.016;2023-10-31T08:59:23;5.65;;;2.42;;
58756;SDS011;44527;47.460;19.016;2023-10-31T09:02:26;4.30;;;2.17;;
58756;SDS011;44527;47.460;19.016;2023-10-31T09:05:29;8.63;;;2.58;;
58756;SDS011;44527;47.460;19.016;2023-10-31T09:08:31;12.35;;;2.60;;
58756;SDS011;44527;47.460;19.016;2023-10-31T09:11:34;8.30;;;2.40;;
58756;SDS011;44527;47.460;19.016;2023-10-31T09:14:36;4.93;;;1.98;;
58756;SDS011;44527;47.460;19.016;2023-10-31T09:17:39;4.95;;;2.10;;
58756;SDS011;44527;47.460;19.016;2023-10-31T09:20:41;6.70;;;2.17;;
58756;SDS011;44527;47.460;19.016;2023-10-31T09:23:44;5.62;;;2.40;;
58756;SDS011;44527;47.460;19.016;2023-10-31T09:26:46;4.28;;;1.92;;
58756;SDS011;44527;47.460;19.016;2023-10-31T09:29:48;8.20;;;2.70;;
58756;SDS011;44527;47.460;19.016;2023-10-31T09:32:51;5.20;;;2.03;;
58756;SDS011;44527;47.460;19.016;2023-10-31T09:35:54;5.50;;;2.17;;
58756;SDS011;44527;47.460;19.016;2023-10-31T09:38:56;9.10;;;2.85;;
58756;SDS011;44527;47.460;19.016;2023-10-31T09:41:59;6.65;;;2.37;;
58756;SDS011;44527;47.460;19.016;2023-10-31T09:45:02;10.07;;;1.98;;
58756;SDS011;44527;47.460;19.016;2023-10-31T09:48:05;15.68;;;2.00;;
58756;SDS011;44527;47.460;19.016;2023-10-31T09:51:08;6.90;;;2.22;;
58756;SDS011;44527;47.460;19.016;2023-10-31T09:54:11;5.07;;;2.05;;
58756;SDS011;44527;47.460;19.016;2023-10-31T09:57:17;5.28;;;2.08;;
58756;SDS011;44527;47.460;19.016;2023-10-31T10:00:22;12.05;;;2.50;;
58756;SDS011;44527;47.460;19.016;2023-10-31T10:03:26;5.18;;;2.03;;
58756;SDS011;44527;47.460;19.016;2023-10-31T10:06:29;6.45;;;2.35;;
58756;SDS011;44527;47.460;19.016;2023-10-31T10:09:32;4.87;;;2.10;;
58756;SDS011;44527;47.460;19.016;2023-10-31T10:12:34;13.20;;;2.45;;
58756;SDS011;44527;47.460;19.016;2023-10-31T10:15:44;9.73;;;1.80;;
58756;SDS011;44527;47.460;19.016;2023-10-31T10:18:47;4.72;;;2.17;;
58756;SDS011;44527;47.460;19.016;2023-10-31T10:21:51;5.43;;;1.98;;
58756;SDS011;44527;47.460;19.016;2023-10-31T10:24:55;6.65;;;2.17;;
58756;SDS011;44527;47.460;19.016;2023-10-31T10:27:58;7.40;;;2.25;;
58756;SDS011;44527;47.460;19.016;2023-10-31T10:31:00;6.55;;;2.30;;
58756;SDS011;44527;47.460;19.016;2023-10-31T10:34:03;7.18;;;2.10;;
58756;SDS011;44527;47.460;19.016;2023-10-31T10:37:07;4.40;;;1.75;;
58756;SDS011;44527;47.460;19.016;2023-10-31T10:40:10;8.25;;;3.15;;
58756;SDS011;44527;47.460;19.016;2023-10-31T10:46:25;6.72;;;2.03;;
58756;SDS011;44527;47.460;19.016;2023-10-31T10:49:28;5.95;;;1.80;;
58756;SDS011;44527;47.460;19.016;2023-10-31T10:52:54;11.85;;;3.28;;
58756;SDS011;44527;47.460;19.016;2023-10-31T10:56:13;7.68;;;1.80;;
58756;SDS011;44527;47.460;19.016;2023-10-31T10:59:30;4.25;;;1.60;;
58756;SDS011;44527;47.460;19.016;2023-10-31T11:02:46;9.55;;;1.98;;
58756;SDS011;44527;47.460;19.016;2023-10-31T11:05:51;7.15;;;2.15;;
58756;SDS011;44527;47.460;19.016;2023-10-31T11:08:53;4.97;;;1.87;;
58756;SDS011;44527;47.460;19.016;2023-10-31T11:11:58;6.03;;;2.08;;
58756;SDS011;44527;47.460;19.016;2023-10-31T11:15:01;5.80;;;2.12;;
58756;SDS011;44527;47.460;19.016;2023-10-31T11:18:06;4.25;;;1.92;;
58756;SDS011;44527;47.460;19.016;2023-10-31T11:21:09;5.57;;;2.17;;
58756;SDS011;44527;47.460;19.016;2023-10-31T11:24:12;8.93;;;2.20;;
58756;SDS011;44527;47.460;19.016;2023-10-31T11:27:14;10.52;;;1.60;;
58756;SDS011;44527;47.460;19.016;2023-10-31T11:33:23;5.20;;;2.03;;
58756;SDS011;44527;47.460;19.016;2023-10-31T11:36:26;6.85;;;2.17;;
58756;SDS011;44527;47.460;19.016;2023-10-31T11:39:28;6.12;;;2.08;;
58756;SDS011;44527;47.460;19.016;2023-10-31T11:42:31;5.35;;;1.90;;
58756;SDS011;44527;47.460;19.016;2023-10-31T11:45:36;4.22;;;2.20;;
58756;SDS011;44527;47.460;19.016;2023-10-31T11:48:51;6.12;;;2.20;;
58756;SDS011;44527;47.460;19.016;2023-10-31T11:51:57;5.93;;;1.85;;
58756;SDS011;44527;47.460;19.016;2023-10-31T11:55:00;6.32;;;2.10;;
58756;SDS011;44527;47.460;19.016;2023-10-31T11:58:40;7.60;;;1.70;;
58756;SDS011;44527;47.460;19.016;2023-10-31T12:01:45;6.12;;;1.90;;
58756;SDS011;44527;47.460;19.016;2023-10-31T12:04:51;7.35;;;2.42;;
58756;SDS011;44527;47.460;19.016;2023-10-31T12:08:07;6.57;;;2.33;;
58756;SDS011;44527;47.460;19.016;2023-10-31T12:14:23;4.62;;;1.60;;
58756;SDS011;44527;47.460;19.016;2023-10-31T12:17:26;8.18;;;2.35;;
58756;SDS011;44527;47.460;19.016;2023-10-31T12:20:29;4.30;;;1.92;;
58756;SDS011;44527;47.460;19.016;2023-10-31T12:23:31;18.12;;;2.55;;
58756;SDS011;44527;47.460;19.016;2023-10-31T12:26:34;7.72;;;2.60;;
58756;SDS011;44527;47.460;19.016;2023-10-31T12:29:37;22.05;;;4.00;;
58756;SDS011;44527;47.460;19.016;2023-10-31T12:32:40;14.45;;;3.40;;
58756;SDS011;44527;47.460;19.016;2023-10-31T12:35:44;10.25;;;3.55;;
58756;SDS011;44527;47.460;19.016;2023-10-31T12:38:47;13.62;;;3.62;;
58756;SDS011;44527;47.460;19.016;2023-10-31T12:41:50;8.98;;;2.83;;
58756;SDS011;44527;47.460;19.016;2023-10-31T12:44:53;8.73;;;2.80;;
58756;SDS011;44527;47.460;19.016;2023-10-31T12:48:02;9.95;;;3.37;;
58756;SDS011;44527;47.460;19.016;2023-10-31T12:51:06;8.82;;;3.10;;
58756;SDS011;44527;47.460;19.016;2023-10-31T12:54:12;9.45;;;3.97;;
58756;SDS011;44527;47.460;19.016;2023-10-31T12:57:14;9.93;;;3.33;;
58756;SDS011;44527;47.460;19.016;2023-10-31T13:00:18;6.12;;;3.08;;
58756;SDS011;44527;47.460;19.016;2023-10-31T13:03:26;11.68;;;3.22;;
58756;SDS011;44527;47.460;19.016;2023-10-31T13:06:29;13.57;;;3.72;;
58756;SDS011;44527;47.460;19.016;2023-10-31T13:09:35;10.82;;;3.20;;
58756;SDS011;44527;47.460;19.016;2023-10-31T13:12:39;13.43;;;4.00;;
58756;SDS011;44527;47.460;19.016;2023-10-31T13:15:41;7.40;;;2.85;;
58756;SDS011;44527;47.460;19.016;2023-10-31T13:18:44;8.18;;;3.65;;
58756;SDS011;44527;47.460;19.016;2023-10-31T13:21:46;9.68;;;3.45;;
58756;SDS011;44527;47.460;19.016;2023-10-31T13:24:49;9.30;;;3.50;;
58756;SDS011;44527;47.460;19.016;2023-10-31T13:27:52;8.70;;;3.05;;
58756;SDS011;44527;47.460;19.016;2023-10-31T13:30:56;7.95;;;3.62;;
58756;SDS011;44527;47.460;19.016;2023-10-31T13:33:58;5.55;;;2.12;;
58756;SDS011;44527;47.460;19.016;2023-10-31T13:37:01;11.40;;;3.33;;
58756;SDS011;44527;47.460;19.016;2023-10-31T13:40:04;7.65;;;2.90;;
58756;SDS011;44527;47.460;19.016;2023-10-31T13:43:10;9.63;;;3.10;;
58756;SDS011;44527;47.460;19.016;2023-10-31T13:46:13;6.47;;;2.55;;
58756;SDS011;44527;47.460;19.016;2023-10-31T13:49:16;7.70;;;2.08;;
58756;SDS011;44527;47.460;19.016;2023-10-31T13:52:18;2.55;;;1.20;;
58756;SDS011;44527;47.460;19.016;2023-10-31T13:55:20;2.33;;;1.33;;
58756;SDS011;44527;47.460;19.016;2023-10-31T13:58:23;3.78;;;1.00;;
58756;SDS011;44527;47.460;19.016;2023-10-31T14:01:25;1.05;;;0.73;;
58756;SDS011;44527;47.460;19.016;2023-10-31T14:04:28;3.95;;;1.20;;
58756;SDS011;44527;47.460;19.016;2023-10-31T14:07:31;1.60;;;0.80;;
58756;SDS011;44527;47.460;19.016;2023-10-31T14:10:34;1.75;;;0.85;;
58756;SDS011;44527;47.460;19.016;2023-10-31T14:13:36;5.03;;;1.15;;
58756;SDS011;44527;47.460;19.016;2023-10-31T14:16:39;4.28;;;1.02;;
58756;SDS011;44527;47.460;19.016;2023-10-31T14:19:42;1.00;;;0.80;;
58756;SDS011;44527;47.460;19.016;2023-10-31T14:22:48;2.55;;;0.95;;
58756;SDS011;44527;47.460;19.016;2023-10-31T14:25:51;1.80;;;0.75;;
58756;SDS011;44527;47.460;19.016;2023-10-31T14:28:55;1.10;;;0.70;;
58756;SDS011;44527;47.460;19.016;2023-10-31T14:32:04;1.35;;;0.85;;
58756;SDS011;44527;47.460;19.016;2023-10-31T14:35:08;1.20;;;0.50;;
58756;SDS011;44527;47.460;19.016;2023-10-31T14:38:10;5.60;;;0.80;;
58756;SDS011;44527;47.460;19.016;2023-10-31T14:41:13;1.02;;;0.52;;
58756;SDS011;44527;47.460;19.016;2023-10-31T14:44:16;1.27;;;0.50;;
58756;SDS011;44527;47.460;19.016;2023-10-31T14:47:19;1.20;;;0.70;;
58756;SDS011;44527;47.460;19.016;2023-10-31T14:50:21;1.87;;;0.60;;
58756;SDS011;44527;47.460;19.016;2023-10-31T14:53:24;0.93;;;0.70;;
58756;SDS011;44527;47.460;19.016;2023-10-31T14:56:26;2.25;;;0.80;;
58756;SDS011;44527;47.460;19.016;2023-10-31T14:59:29;0.55;;;0.52;;
58756;SDS011;44527;47.460;19.016;2023-10-31T15:02:31;2.28;;;0.60;;
58756;SDS011;44527;47.460;19.016;2023-10-31T15:05:36;4.53;;;0.98;;
58756;SDS011;44527;47.460;19.016;2023-10-31T15:08:39;3.05;;;0.77;;
58756;SDS011;44527;47.460;19.016;2023-10-31T15:11:42;5.45;;;0.82;;
58756;SDS011;44527;47.460;19.016;2023-10-31T15:14:44;3.75;;;1.08;;
58756;SDS011;44527;47.460;19.016;2023-10-31T15:17:46;2.72;;;0.80;;
58756;SDS011;44527;47.460;19.016;2023-10-31T15:20:50;0.70;;;0.50;;
58756;SDS011;44527;47.460;19.016;2023-10-31T15:23:52;0.73;;;0.60;;
58756;SDS011;44527;47.460;19.016;2023-10-31T15:26:56;1.65;;;0.98;;
58756;SDS011;44527;47.460;19.016;2023-10-31T15:29:59;0.85;;;0.70;;
58756;SDS011;44527;47.460;19.016;2023-10-31T15:33:01;3.47;;;1.35;;
58756;SDS011;44527;47.460;19.016;2023-10-31T15:36:04;2.90;;;1.00;;
58756;SDS011;44527;47.460;19.016;2023-10-31T15:39:07;4.75;;;0.90;;
58756;SDS011;44527;47.460;19.016;2023-10-31T15:42:11;2.20;;;1.00;;
58756;SDS011;44527;47.460;19.016;2023-10-31T15:45:14;1.70;;;0.98;;
58756;SDS011;44527;47.460;19.016;2023-10-31T15:48:16;2.33;;;1.25;;
58756;SDS011;44527;47.460;19.016;2023-10-31T15:51:19;1.55;;;1.12;;
58756;SDS011;44527;47.460;19.016;2023-10-31T15:54:21;0.88;;;0.70;;
58756;SDS011;44527;47.460;19.016;2023-10-31T15:57:24;2.95;;;1.25;;
58756;SDS011;44527;47.460;19.016;2023-10-31T16:00:26;1.10;;;0.80;;
58756;SDS011;44527;47.460;19.016;2023-10-31T16:03:29;4.45;;;1.02;;
58756;SDS011;44527;47.460;19.016;2023-10-31T16:06:32;2.58;;;1.00;;
58756;SDS011;44527;47.460;19.016;2023-10-31T16:09:35;3.08;;;0.90;;
58756;SDS011;44527;47.460;19.016;2023-10-31T16:12:37;3.33;;;1.00;;
58756;SDS011;44527;47.460;19.016;2023-10-31T16:15:40;3.12;;;0.90;;
58756;SDS011;44527;47.460;19.016;2023-10-31T16:18:42;1.15;;;0.70;;
58756;SDS011;44527;47.460;19.016;2023-10-31T16:21:45;2.83;;;0.88;;
58756;SDS011;44527;47.460;19.016;2023-10-31T16:24:48;3.40;;;1.00;;
58756;SDS011;44527;47.460;19.016;2023-10-31T16:27:53;1.70;;;0.88;;
58756;SDS011;44527;47.460;19.016;2023-10-31T16:30:56;2.62;;;1.23;;
58756;SDS011;44527;47.460;19.016;2023-10-31T16:33:58;3.55;;;1.50;;
58756;SDS011;44527;47.460;19.016;2023-10-31T16:37:00;2.95;;;1.15;;
58756;SDS011;44527;47.460;19.016;2023-10-31T16:40:03;2.55;;;1.40;;
58756;SDS011;44527;47.460;19.016;2023-10-31T16:43:06;1.83;;;1.20;;
58756;SDS011;44527;47.460;19.016;2023-10-31T16:46:08;1.58;;;1.23;;
58756;SDS011;44527;47.460;19.016;2023-10-31T16:49:12;3.87;;;1.62;;
58756;SDS011;44527;47.460;19.016;2023-10-31T16:52:15;2.60;;;1.73;;
58756;SDS011;44527;47.460;19.016;2023-10-31T16:55:17;5.80;;;1.62;;
58756;SDS011;44527;47.460;19.016;2023-10-31T16:58:20;4.30;;;2.00;;
58756;SDS011;44527;47.460;19.016;2023-10-31T17:01:22;2.87;;;1.90;;
58756;SDS011;44527;47.460;19.016;2023-10-31T17:04:25;5.55;;;2.25;;
58756;SDS011;44527;47.460;19.016;2023-10-31T17:07:27;3.78;;;1.92;;
58756;SDS011;44527;47.460;19.016;2023-10-31T17:10:30;3.80;;;1.87;;
58756;SDS011;44527;47.460;19.016;2023-10-31T17:13:32;4.25;;;1.80;;
58756;SDS011;44527;47.460;19.016;2023-10-31T17:16:36;4.45;;;1.80;;
58756;SDS011;44527;47.460;19.016;2023-10-31T17:19:38;2.28;;;1.52;;
58756;SDS011;44527;47.460;19.016;2023-10-31T17:22:42;4.03;;;2.83;;
58756;SDS011;44527;47.460;19.016;2023-10-31T17:25:44;6.53;;;1.92;;
58756;SDS011;44527;47.460;19.016;2023-10-31T17:28:50;3.10;;;1.85;;
58756;SDS011;44527;47.460;19.016;2023-10-31T17:31:53;3.62;;;1.87;;
58756;SDS011;44527;47.460;19.016;2023-10-31T17:34:56;5.07;;;1.42;;
58756;SDS011;44527;47.460;19.016;2023-10-31T17:37:58;2.15;;;1.30;;
58756;SDS011;44527;47.460;19.016;2023-10-31T17:41:01;2.10;;;1.60;;
58756;SDS011;44527;47.460;19.016;2023-10-31T17:44:04;2.75;;;1.75;;
58756;SDS011;44527;47.460;19.016;2023-10-31T17:47:06;2.92;;;1.27;;
58756;SDS011;44527;47.460;19.016;2023-10-31T17:50:09;2.72;;;1.70;;
58756;SDS011;44527;47.460;19.016;2023-10-31T17:53:11;3.17;;;1.67;;
58756;SDS011;44527;47.460;19.016;2023-10-31T17:56:14;3.33;;;1.60;;
58756;SDS011;44527;47.460;19.016;2023-10-31T17:59:17;3.37;;;1.42;;
58756;SDS011;44527;47.460;19.016;2023-10-31T18:02:19;4.15;;;1.83;;
58756;SDS011;44527;47.460;19.016;2023-10-31T18:05:22;3.67;;;1.60;;
58756;SDS011;44527;47.460;19.016;2023-10-31T18:08:24;3.85;;;1.73;;
58756;SDS011;44527;47.460;19.016;2023-10-31T18:11:30;2.83;;;1.30;;